ESGR/KVB METAR and TAF weather

Enter ICAO airport designator
Station Type Date Time Source
ESGR METAR 2020/12/06 01:20 UTC NOAA

ESGR 060120Z AUTO 15006KT 8000 BR OVC024/// 06/05 Q1008


Station Type Date Time Source
ESGR Decoded METAR 2020/12/06 01:20 UTC NOAA

Skovde Flygplats, Sweden (ESGR) 58-27N 013-58E 105M
Dec 05, 2020 - 08:20 PM EST / 2020.12.06 0120 UTC
Wind: from the SSE (150 degrees) at 7 MPH (6 KT):0
Visibility: 4 mile(s):0
Sky conditions: overcast
Weather: mist
Temperature: 42 F (6 C)
Dew Point: 41 F (5 C)
Relative Humidity: 93%
Pressure (altimeter): 29.77 in. Hg (1008 hPa)
ob: ESGR 060120Z AUTO 15006KT 8000 BR OVC024/// 06/05 Q1008
cycle: 1

Station Type Date Time Source
ESGR TAF 2009/06/28 04:50 UTC NOAA

METAR ESGR 280450Z AUTO VRB02KT 9999NDV NCD 17/12 Q1020

Example: see airport list